Time;durP1;ratioP1;P1;durP2;ratioP2;P2;SDS_P1;SDS_P2;PMS_P1;PMS_P2;Temp;Humidity;BMP_temperature;BMP_pressure;BME280_temperature;BME280_humidity;BME280_pressure;Samples;Min_cycle;Max_cycle;Signal;HPM_P1;HPM_P2
2023/02/28 00:00:09;;;;;;;8.70;7.30;;;;;;;7.53;63.17;102614.84;106897;1276;24336;-49
2023/02/28 00:02:40;;;;;;;8.50;7.50;;;;;;;7.51;63.38;102619.81;106557;1276;25351;-49
2023/02/28 00:05:10;;;;;;;8.50;7.20;;;;;;;7.55;63.34;102617.12;106172;1272;1003126;-51
2023/02/28 00:07:43;;;;;;;8.80;7.40;;;;;;;7.59;63.12;102631.01;107004;1270;26509;-49
2023/02/28 00:10:23;;;;;;;8.20;7.40;;;;;;;7.58;62.87;102631.52;107063;1269;25366;-50
2023/02/28 00:12:56;;;;;;;7.90;7.10;;;;;;;7.59;62.72;102640.17;107062;1270;25352;-49
2023/02/28 00:15:25;;;;;;;8.90;7.30;;;;;;;7.58;62.89;102637.92;106970;1269;22524;-49
2023/02/28 00:17:53;;;;;;;8.50;7.30;;;;;;;7.59;62.51;102629.12;106836;1272;24224;-49
2023/02/28 00:20:22;;;;;;;8.10;7.30;;;;;;;7.58;62.67;102622.18;106152;1274;1003012;-49
2023/02/28 00:22:51;;;;;;;8.70;7.80;;;;;;;7.55;62.67;102615.58;106896;1270;26528;-49
2023/02/28 00:25:23;;;;;;;8.60;7.70;;;;;;;7.54;62.48;102610.38;106701;1270;22527;-49
2023/02/28 00:27:52;;;;;;;8.80;7.40;;;;;;;7.53;62.53;102607.92;106960;1270;22529;-49
2023/02/28 00:30:21;;;;;;;7.80;6.70;;;;;;;7.48;62.64;102605.77;106963;1272;22743;-49
2023/02/28 00:32:50;;;;;;;8.50;7.60;;;;;;;7.43;62.39;102606.16;106866;1270;22535;-49
2023/02/28 00:35:19;;;;;;;8.70;7.80;;;;;;;7.37;62.68;102604.49;106965;1270;22605;-49
2023/02/28 00:37:49;;;;;;;7.90;7.10;;;;;;;7.32;62.81;102605.93;106754;1270;25344;-49
2023/02/28 00:40:17;;;;;;;8.10;7.10;;;;;;;7.31;62.67;102606.95;106998;1270;25313;-49
2023/02/28 00:42:47;;;;;;;7.60;6.50;;;;;;;7.37;62.74;102609.33;106263;1270;1003445;-49
2023/02/28 00:45:16;;;;;;;7.30;6.50;;;;;;;7.37;63.03;102605.71;106942;1269;25254;-49
2023/02/28 00:47:46;;;;;;;7.80;7.00;;;;;;;7.39;63.18;102607.65;106878;1270;23296;-48
2023/02/28 00:50:17;;;;;;;8.40;6.60;;;;;;;7.44;62.92;102621.53;106917;1276;22580;-49
2023/02/28 00:52:47;;;;;;;7.50;6.60;;;;;;;7.43;62.56;102628.27;106941;1270;25369;-49
2023/02/28 00:55:16;;;;;;;7.50;6.60;;;;;;;7.41;62.54;102637.73;107039;1271;22531;-49
2023/02/28 00:57:44;;;;;;;8.20;7.10;;;;;;;7.42;62.64;102644.29;106957;1270;25376;-49
2023/02/28 01:00:14;;;;;;;9.60;7.40;;;;;;;7.44;62.84;102650.73;106874;1276;23930;-49
2023/02/28 01:02:43;;;;;;;8.20;7.40;;;;;;;7.47;62.66;102649.41;106839;1274;22516;-49
2023/02/28 01:05:12;;;;;;;8.50;7.40;;;;;;;7.43;62.37;102650.39;106032;1272;1002993;-49
2023/02/28 01:07:42;;;;;;;7.80;6.80;;;;;;;7.39;62.42;102648.89;106247;1269;1002909;-49
2023/02/28 01:10:10;;;;;;;9.40;7.60;;;;;;;7.37;62.39;102648.85;107034;1272;22527;-49
2023/02/28 01:12:41;;;;;;;9.40;7.40;;;;;;;7.33;62.45;102652.40;106887;1269;25407;-48
2023/02/28 01:15:11;;;;;;;7.60;6.90;;;;;;;7.31;62.90;102652.34;106990;1273;25325;-48
2023/02/28 01:17:40;;;;;;;10.10;7.40;;;;;;;7.35;62.78;102659.02;106606;1270;22662;-49
2023/02/28 01:20:09;;;;;;;8.10;7.30;;;;;;;7.37;62.59;102663.88;106700;1274;25438;-49
2023/02/28 01:22:39;;;;;;;7.30;6.60;;;;;;;7.36;62.64;102656.09;106785;1276;22530;-49
2023/02/28 01:25:08;;;;;;;7.70;6.90;;;;;;;7.34;62.57;102657.27;106981;1271;25357;-48
2023/02/28 01:27:36;;;;;;;8.20;7.00;;;;;;;7.30;62.60;102659.42;106818;1270;25418;-49
2023/02/28 01:30:27;;;;;;;9.60;7.60;;;;;;;7.26;62.73;102659.83;106997;1270;25481;-48
2023/02/28 01:32:56;;;;;;;9.00;6.40;;;;;;;7.24;62.70;102666.70;105956;1273;1003269;-48
2023/02/28 01:35:25;;;;;;;8.40;6.70;;;;;;;7.22;62.90;102669.24;106689;1273;24275;-49
2023/02/28 01:37:55;;;;;;;7.90;7.10;;;;;;;7.20;62.89;102672.14;106729;1273;22621;-49
2023/02/28 01:40:32;;;;;;;9.00;7.50;;;;;;;7.19;62.83;102672.64;106786;1273;25607;-50
2023/02/28 01:43:00;;;;;;;8.90;8.00;;;;;;;7.17;62.77;102678.80;105969;1274;1003468;-49
2023/02/28 01:45:29;;;;;;;7.40;6.60;;;;;;;7.15;62.96;102683.59;106687;1279;25471;-49
2023/02/28 01:48:01;;;;;;;7.10;6.30;;;;;;;7.14;63.16;102692.71;106772;1276;22758;-49
2023/02/28 01:50:31;;;;;;;;;;;;;;;7.14;63.07;102697.73;106729;1273;25353;-49
2023/02/28 01:53:01;;;;;;;7.10;6.40;;;;;;;7.14;63.13;102696.86;106758;1273;24224;-49
2023/02/28 01:55:35;;;;;;;7.70;6.90;;;;;;;7.16;63.21;102699.30;106628;1276;25405;-49
2023/02/28 01:58:04;;;;;;;7.90;6.60;;;;;;;7.18;63.20;102697.80;105882;1272;1015647;-49
2023/02/28 02:00:33;;;;;;;7.70;6.60;;;;;;;7.22;63.16;102701.01;106619;1278;25535;-49
2023/02/28 02:03:08;;;;;;;6.90;6.20;;;;;;;7.24;63.13;102697.77;106765;1273;25352;-49
2023/02/28 02:05:38;;;;;;;7.00;6.30;;;;;;;7.25;63.18;102699.55;106727;1276;22537;-49
2023/02/28 02:08:13;;;;;;;;;;;;;;;7.29;63.12;102703.23;106651;1273;23193;-49
2023/02/28 02:10:59;;;;;;;8.20;7.20;;;;;;;7.30;62.85;102711.19;106874;1270;22637;-49
2023/02/28 02:13:37;;;;;;;8.50;6.80;;;;;;;7.26;62.39;102707.66;106898;1270;25482;-48
2023/02/28 02:16:19;;;;;;;7.00;6.30;;;;;;;7.18;62.32;102711.44;106945;1269;25331;-48
2023/02/28 02:18:47;;;;;;;7.60;6.10;;;;;;;7.13;62.55;102712.02;106920;1269;22604;-50
2023/02/28 02:22:08;;;;;;;9.40;7.30;;;;;;;7.08;62.76;102709.13;106228;1266;1003308;-50
2023/02/28 02:24:47;;;;;;;8.90;7.20;;;;;;;7.04;63.03;102712.66;105594;1278;1016452;-49
2023/02/28 02:27:50;;;;;;;7.30;6.20;;;;;;;7.04;62.94;102715.43;106472;1276;25496;-48
2023/02/28 02:30:19;;;;;;;7.60;6.80;;;;;;;7.03;63.09;102711.78;106344;1276;25362;-48
2023/02/28 02:33:22;;;;;;;8.30;6.80;;;;;;;7.02;63.08;102712.27;106048;1280;25538;-49
2023/02/28 02:35:55;;;;;;;7.40;6.70;;;;;;;7.01;63.05;102708.27;106388;1276;25355;-49
2023/02/28 02:38:50;;;;;;;8.10;6.80;;;;;;;6.99;62.96;102710.98;106440;1278;24225;-49
2023/02/28 02:41:28;;;;;;;8.90;6.90;;;;;;;6.99;62.98;102713.05;106418;1277;22719;-49
2023/02/28 02:44:07;;;;;;;8.10;6.90;;;;;;;6.97;63.03;102711.29;106346;1282;22543;-49
2023/02/28 02:46:43;;;;;;;8.50;7.10;;;;;;;6.93;62.87;102714.28;106230;1280;25341;-49
2023/02/28 02:49:20;;;;;;;8.70;7.20;;;;;;;6.89;63.07;102719.35;106327;1280;22879;-48
2023/02/28 02:51:49;;;;;;;8.80;6.50;;;;;;;6.85;63.07;102719.62;105470;1277;1003332;-48
2023/02/28 02:54:20;;;;;;;7.80;7.00;;;;;;;6.84;63.28;102716.99;105530;1279;1003140;-49
2023/02/28 02:56:49;;;;;;;8.40;7.30;;;;;;;6.84;63.46;102713.37;106289;1285;25297;-49
2023/02/28 02:59:21;;;;;;;9.20;7.20;;;;;;;6.83;63.24;102712.66;106368;1278;25361;-49
2023/02/28 03:01:55;;;;;;;8.50;7.60;;;;;;;6.81;63.10;102710.54;106644;1270;26500;-49
2023/02/28 03:04:24;;;;;;;8.10;7.10;;;;;;;6.78;63.13;102707.37;106065;1270;1003760;-49
2023/02/28 03:06:54;;;;;;;8.90;7.60;;;;;;;6.76;63.22;102712.83;106875;1276;25331;-48
2023/02/28 03:09:23;;;;;;;7.80;7.00;;;;;;;6.73;63.23;102710.70;106790;1269;25527;-49
2023/02/28 03:11:54;;;;;;;8.60;7.60;;;;;;;6.73;63.58;102706.89;106920;1269;22540;-49
2023/02/28 03:14:40;;;;;;;;;;;;;;;6.72;63.36;102719.80;106945;1270;22511;-49
2023/02/28 03:17:12;;;;;;;10.40;8.10;;;;;;;6.71;63.32;102727.38;106899;1270;22576;-49
2023/02/28 03:19:49;;;;;;;9.80;8.40;;;;;;;6.70;63.30;102737.88;107002;1270;24396;-49
2023/02/28 03:22:49;;;;;;;9.40;7.70;;;;;;;6.70;63.30;102744.25;106148;1269;1003814;-49
2023/02/28 03:25:32;;;;;;;8.60;7.50;;;;;;;6.71;63.12;102747.72;106821;1273;24371;-49
2023/02/28 03:28:01;;;;;;;11.90;8.40;;;;;;;6.72;63.08;102744.98;106976;1269;22537;-49
2023/02/28 03:30:48;;;;;;;11.30;9.20;;;;;;;6.72;62.93;102744.11;106879;1276;26561;-49
2023/02/28 03:33:19;;;;;;;9.30;8.40;;;;;;;6.70;62.74;102743.55;106062;1270;1002918;-49
2023/02/28 03:35:59;;;;;;;10.50;8.20;;;;;;;6.69;62.85;102745.43;107020;1270;26740;-49
2023/02/28 03:38:42;;;;;;;9.60;8.50;;;;;;;6.69;62.93;102751.80;106943;1271;25558;-49
2023/02/28 03:41:16;;;;;;;10.70;8.20;;;;;;;6.69;62.83;102755.41;106903;1269;25354;-49
2023/02/28 03:43:49;;;;;;;10.90;8.70;;;;;;;6.67;62.69;102749.86;107049;1272;22541;-49
2023/02/28 03:46:21;;;;;;;11.10;8.90;;;;;;;6.65;62.58;102751.88;106174;1270;1003734;-49
2023/02/28 03:48:53;;;;;;;9.40;8.00;;;;;;;6.60;62.37;102753.30;106791;1274;22565;-49
2023/02/28 03:51:23;;;;;;;9.40;8.40;;;;;;;6.54;62.38;102757.98;106923;1253;23442;-49
2023/02/28 03:53:53;;;;;;;9.80;8.40;;;;;;;6.51;62.50;102753.77;106122;1270;1002459;-49
2023/02/28 03:56:31;;;;;;;10.30;8.50;;;;;;;6.47;62.34;102754.33;106206;1273;1003732;-49
2023/02/28 03:59:18;;;;;;;10.00;8.50;;;;;;;6.43;62.21;102756.30;106956;1269;22538;-49
2023/02/28 04:01:48;;;;;;;11.80;8.70;;;;;;;6.42;62.45;102761.96;106078;1270;1003161;-49
2023/02/28 04:04:16;;;;;;;10.20;9.00;;;;;;;6.36;62.56;102764.19;106707;1273;22647;-48
2023/02/28 04:06:50;;;;;;;9.80;8.70;;;;;;;6.36;62.69;102773.35;106169;1270;1003284;-50
2023/02/28 04:09:18;;;;;;;11.10;9.40;;;;;;;6.36;62.78;102773.34;106183;1269;1002302;-48
2023/02/28 04:11:52;;;;;;;10.80;8.90;;;;;;;6.37;62.83;102779.23;106870;1270;26685;-48
2023/02/28 04:14:21;;;;;;;10.30;8.80;;;;;;;6.35;62.83;102782.81;106870;1269;25382;-49
2023/02/28 04:16:50;;;;;;;9.20;8.00;;;;;;;6.33;62.85;102792.23;106952;1268;25456;-48
2023/02/28 04:19:19;;;;;;;10.60;9.20;;;;;;;6.31;62.78;102784.06;107003;1269;25359;-49
2023/02/28 04:21:51;;;;;;;9.40;8.00;;;;;;;6.30;62.70;102787.48;106881;1269;23897;-48
2023/02/28 04:24:22;;;;;;;10.20;8.70;;;;;;;6.27;62.48;102781.52;106195;1270;1003353;-48
2023/02/28 04:26:53;;;;;;;8.50;7.60;;;;;;;6.24;62.57;102779.58;106956;1269;25465;-49
2023/02/28 04:29:23;;;;;;;10.00;8.40;;;;;;;6.22;62.64;102778.80;106966;1258;25519;-49
2023/02/28 04:31:53;;;;;;;9.60;8.60;;;;;;;6.20;62.72;102776.33;106924;1269;25350;-49
2023/02/28 04:34:21;;;;;;;10.60;8.80;;;;;;;6.19;62.54;102779.23;106171;1268;1003567;-49
2023/02/28 04:36:50;;;;;;;9.20;8.10;;;;;;;6.17;62.67;102777.80;106017;1273;1002879;-48
2023/02/28 04:39:37;;;;;;;8.50;7.70;;;;;;;6.17;62.65;102776.41;106946;1269;25353;-49
2023/02/28 04:42:06;;;;;;;9.40;8.30;;;;;;;6.15;62.67;102774.11;106869;1269;25397;-49
2023/02/28 04:44:34;;;;;;;10.00;8.10;;;;;;;6.12;62.65;102771.09;106924;1269;25360;-49
2023/02/28 04:47:03;;;;;;;9.80;8.40;;;;;;;6.10;62.74;102781.71;106946;1270;25363;-49
2023/02/28 04:49:32;;;;;;;9.60;8.50;;;;;;;6.09;62.66;102787.04;106980;1269;25354;-49
2023/02/28 04:52:01;;;;;;;11.70;10.00;;;;;;;6.08;62.65;102778.73;107045;1269;22632;-49
2023/02/28 04:54:30;;;;;;;10.30;8.80;;;;;;;6.04;62.56;102786.38;106932;1253;25386;-49
2023/02/28 04:56:59;;;;;;;9.80;8.60;;;;;;;6.00;62.75;102786.62;105959;1276;1002909;-49
2023/02/28 04:59:33;;;;;;;9.80;8.00;;;;;;;5.98;62.89;102788.27;106832;1270;25353;-49
2023/02/28 05:02:06;;;;;;;10.40;8.70;;;;;;;5.99;62.90;102788.46;106974;1269;25341;-49
2023/02/28 05:04:35;;;;;;;11.00;8.40;;;;;;;5.98;62.79;102791.04;106877;1270;24568;-49
2023/02/28 05:07:04;;;;;;;10.40;9.20;;;;;;;5.98;62.72;102794.98;107034;1269;22544;-49
2023/02/28 05:09:33;;;;;;;9.20;8.20;;;;;;;5.94;62.61;102796.27;106966;1269;23286;-49
2023/02/28 05:12:06;;;;;;;10.40;9.20;;;;;;;5.93;62.55;102800.35;106950;1270;25528;-49
2023/02/28 05:14:37;;;;;;;11.40;9.70;;;;;;;5.89;62.26;102800.59;106040;1268;1003687;-48
2023/02/28 05:17:05;;;;;;;9.90;8.70;;;;;;;5.86;62.18;102809.27;106888;1272;25379;-49
2023/02/28 05:19:35;;;;;;;11.40;9.30;;;;;;;5.83;62.23;102818.98;106778;1269;25390;-49
2023/02/28 05:22:03;;;;;;;9.50;8.50;;;;;;;5.81;62.31;102825.98;107032;1269;25535;-49
2023/02/28 05:24:39;;;;;;;11.30;8.70;;;;;;;5.82;62.59;102824.97;106123;1268;1003537;-49
2023/02/28 05:27:08;;;;;;;9.80;8.10;;;;;;;5.85;62.67;102820.94;106875;1273;25459;-49
2023/02/28 05:29:41;;;;;;;10.80;9.00;;;;;;;5.87;62.56;102821.17;106860;1273;24325;-49
2023/02/28 05:32:11;;;;;;;11.60;9.50;;;;;;;5.87;62.83;102821.38;106952;1270;22546;-49
2023/02/28 05:34:40;;;;;;;10.00;8.30;;;;;;;5.88;62.92;102831.05;106170;1269;1003047;-49
2023/02/28 05:37:11;;;;;;;10.50;8.70;;;;;;;5.90;63.10;102833.52;106964;1269;22523;-49
2023/02/28 05:39:41;;;;;;;10.50;8.70;;;;;;;5.92;62.91;102841.50;106872;1269;24558;-49
2023/02/28 05:42:09;;;;;;;11.30;9.40;;;;;;;5.94;63.25;102849.14;106783;1270;25332;-49
2023/02/28 05:44:39;;;;;;;9.70;8.60;;;;;;;5.97;63.24;102855.59;106938;1268;22579;-49
2023/02/28 05:47:08;;;;;;;10.20;7.90;;;;;;;6.00;63.44;102864.65;106253;1269;1003382;-49
2023/02/28 05:49:37;;;;;;;12.00;9.10;;;;;;;6.05;63.36;102867.73;106865;1273;25341;-49
2023/02/28 05:52:05;;;;;;;10.70;9.10;;;;;;;6.09;63.38;102869.39;106902;1269;25354;-49
2023/02/28 05:54:35;;;;;;;10.90;9.40;;;;;;;6.11;63.12;102872.05;107001;1269;25342;-49
2023/02/28 05:57:03;;;;;;;9.80;8.40;;;;;;;6.12;62.91;102878.29;106827;1270;22550;-49
2023/02/28 05:59:42;;;;;;;10.10;8.30;;;;;;;6.14;62.72;102881.09;106167;1269;1016072;-49
2023/02/28 06:02:12;;;;;;;9.10;8.20;;;;;;;6.14;62.53;102885.24;106873;1274;25328;-49
2023/02/28 06:04:41;;;;;;;10.30;9.20;;;;;;;6.15;62.18;102892.15;106180;1269;1002477;-48
2023/02/28 06:07:09;;;;;;;10.20;8.70;;;;;;;6.15;62.17;102895.42;106219;1269;1002836;-48
2023/02/28 06:09:40;;;;;;;9.80;8.80;;;;;;;6.16;62.21;102902.70;107032;1269;25465;-48
2023/02/28 06:12:10;;;;;;;9.30;7.70;;;;;;;6.17;62.15;102906.70;106894;1269;25366;-48
2023/02/28 06:14:39;;;;;;;10.50;8.60;;;;;;;6.20;61.87;102911.27;106958;1269;24207;-48
2023/02/28 06:17:10;;;;;;;10.00;8.20;;;;;;;6.22;61.65;102912.52;106811;1272;25366;-49
2023/02/28 06:19:41;;;;;;;12.10;8.80;;;;;;;6.21;61.27;102916.48;106967;1269;25344;-49
2023/02/28 06:22:09;;;;;;;8.90;7.60;;;;;;;6.21;61.10;102923.17;106789;1270;25359;-49
2023/02/28 06:24:38;;;;;;;8.60;7.70;;;;;;;6.22;61.18;102933.05;106866;1269;25354;-49
2023/02/28 06:27:06;;;;;;;10.20;8.10;;;;;;;6.25;61.09;102936.59;106928;1264;24221;-49
2023/02/28 06:29:35;;;;;;;9.00;7.60;;;;;;;6.30;61.21;102933.98;106909;1269;25333;-49
2023/02/28 06:32:04;;;;;;;9.50;8.20;;;;;;;6.34;61.20;102926.36;106711;1276;22567;-49
2023/02/28 06:34:35;;;;;;;8.90;7.50;;;;;;;6.40;61.10;102926.68;106831;1269;25824;-49
2023/02/28 06:37:04;;;;;;;9.40;8.20;;;;;;;6.46;60.94;102931.73;106895;1272;25351;-49
2023/02/28 06:39:38;;;;;;;8.80;7.70;;;;;;;6.53;60.77;102935.55;106781;1272;25334;-49
2023/02/28 06:42:06;;;;;;;9.10;7.80;;;;;;;6.57;60.35;102935.66;106010;1270;1003189;-48
2023/02/28 06:44:35;;;;;;;9.10;8.10;;;;;;;6.62;60.48;102938.88;106963;1269;24365;-48
2023/02/28 06:50:24;;;;;;;9.00;7.50;;;;;;;6.71;60.56;102941.05;103688;1298;545972;-48
2023/02/28 06:52:54;;;;;;;9.30;8.20;;;;;;;6.72;59.99;102942.64;105424;1270;1002749;-48
2023/02/28 06:55:24;;;;;;;9.50;8.10;;;;;;;6.76;59.97;102946.04;105953;1288;25348;-48
2023/02/28 06:57:54;;;;;;;10.80;9.10;;;;;;;6.79;59.89;102944.22;106149;1282;25377;-48
2023/02/28 07:00:24;;;;;;;8.30;7.40;;;;;;;6.84;59.75;102944.02;106129;1282;25370;-48
2023/02/28 07:02:54;;;;;;;8.40;7.40;;;;;;;6.88;59.74;102951.05;105942;1280;241905;-48
2023/02/28 07:05:23;;;;;;;8.50;7.50;;;;;;;6.92;59.64;102949.44;106298;1280;24216;-48
2023/02/28 07:07:54;;;;;;;8.20;7.30;;;;;;;6.99;59.40;102955.13;105889;1279;25341;-48
2023/02/28 07:10:22;;;;;;;8.90;7.80;;;;;;;7.04;59.13;102954.94;105637;1279;1003430;-48
2023/02/28 07:12:51;;;;;;;10.30;8.50;;;;;;;7.08;59.08;102947.95;106311;1278;25370;-49
2023/02/28 07:15:19;;;;;;;8.20;7.40;;;;;;;7.09;58.81;102946.47;106282;1279;25314;-48
2023/02/28 07:17:48;;;;;;;8.90;7.60;;;;;;;7.13;58.95;102948.14;106456;1279;25423;-48
2023/02/28 07:20:20;;;;;;;8.70;7.80;;;;;;;7.19;58.82;102951.72;106434;1281;25344;-48
2023/02/28 07:22:55;;;;;;;9.10;7.60;;;;;;;7.26;58.79;102955.55;106374;1280;25328;-48
2023/02/28 07:25:27;;;;;;;8.80;7.90;;;;;;;7.35;58.42;102957.85;106295;1280;25432;-47
2023/02/28 07:27:56;;;;;;;9.20;7.70;;;;;;;7.40;58.28;102956.10;106350;1280;25730;-48
2023/02/28 07:30:24;;;;;;;10.60;7.80;;;;;;;7.45;58.15;102958.46;105595;1280;1002984;-47
2023/02/28 07:32:54;;;;;;;9.20;7.60;;;;;;;7.47;57.78;102966.45;106330;1280;22681;-50
2023/02/28 07:35:23;;;;;;;8.50;7.30;;;;;;;7.54;58.00;102974.23;106383;1278;25371;-47
2023/02/28 07:37:53;;;;;;;7.80;6.80;;;;;;;7.62;57.70;102976.71;106371;1283;25469;-47
2023/02/28 07:40:22;;;;;;;8.30;7.30;;;;;;;7.69;57.36;102974.30;106349;1279;25421;-48
2023/02/28 07:42:50;;;;;;;8.20;7.40;;;;;;;7.77;57.19;102975.71;106344;1280;25344;-48
2023/02/28 07:45:19;;;;;;;9.70;8.40;;;;;;;7.85;57.10;102981.79;106209;1280;25380;-48
2023/02/28 07:47:47;;;;;;;8.50;6.70;;;;;;;7.95;56.92;102977.55;106392;1278;25344;-48
2023/02/28 07:50:17;;;;;;;9.10;7.40;;;;;;;8.03;56.64;102980.52;106303;1282;25371;-49
2023/02/28 07:52:45;;;;;;;8.30;7.20;;;;;;;8.11;56.55;102984.67;106093;1282;24228;-48
2023/02/28 07:55:15;;;;;;;9.00;7.30;;;;;;;8.20;56.44;102985.42;106006;1273;1003379;-49
2023/02/28 07:57:44;;;;;;;8.20;6.90;;;;;;;8.28;56.09;102987.15;106736;1273;25604;-48
2023/02/28 08:00:13;;;;;;;9.00;7.40;;;;;;;8.26;55.63;102990.57;106812;1273;22520;-49
2023/02/28 08:02:43;;;;;;;8.70;7.10;;;;;;;8.21;55.87;102989.05;106803;1272;25242;-48
2023/02/28 08:09:06;;;;;;;9.40;6.80;;;;;;;8.39;55.68;102991.05;105981;1272;1003088;-49
2023/02/28 08:11:37;;;;;;;7.60;6.80;;;;;;;8.44;55.23;102997.39;106808;1257;25432;-49
2023/02/28 08:14:05;;;;;;;7.60;6.50;;;;;;;8.45;55.15;102993.98;106687;1272;25355;-48
2023/02/28 08:16:34;;;;;;;7.90;6.90;;;;;;;8.48;55.00;102993.67;106774;1271;25294;-49
2023/02/28 08:19:03;;;;;;;8.70;7.00;;;;;;;8.47;54.83;102993.50;106723;1274;24764;-49
2023/02/28 08:21:32;;;;;;;7.30;6.60;;;;;;;8.48;54.89;102990.41;105698;1279;1003243;-48
2023/02/28 08:24:01;;;;;;;7.80;7.00;;;;;;;8.50;54.94;102985.95;106730;1272;22631;-49
2023/02/28 08:26:29;;;;;;;8.00;7.00;;;;;;;8.52;55.00;102978.55;106712;1272;26724;-49
2023/02/28 08:28:58;;;;;;;8.10;6.70;;;;;;;8.65;54.84;102977.97;106651;1272;22551;-48
2023/02/28 08:31:28;;;;;;;8.50;7.30;;;;;;;8.75;54.68;102974.55;106693;1275;24268;-49
2023/02/28 08:33:59;;;;;;;9.50;7.30;;;;;;;8.80;54.77;102971.02;106727;1274;25338;-49
2023/02/28 08:36:28;;;;;;;8.20;7.40;;;;;;;8.85;54.70;102975.81;106817;1274;25364;-48
2023/02/28 08:38:57;;;;;;;9.20;7.50;;;;;;;8.93;54.56;102980.98;105760;1273;1002980;-48
2023/02/28 08:41:26;;;;;;;9.00;7.40;;;;;;;8.95;54.48;102975.30;106748;1272;25485;-47
2023/02/28 08:43:55;;;;;;;7.30;6.60;;;;;;;8.97;54.15;102972.24;106719;1272;25386;-50
2023/02/28 08:46:24;;;;;;;6.80;6.10;;;;;;;8.97;54.23;102970.35;106713;1272;24356;-48
2023/02/28 08:48:54;;;;;;;7.70;6.90;;;;;;;8.99;54.10;102976.78;106728;1272;25423;-48
2023/02/28 09:55:36;;;;;;;8.30;7.50;;;;;;;9.23;54.04;102931.38;106684;1273;25329;-47
2023/02/28 09:58:28;;;;;;;8.20;7.40;;;;;;;9.22;54.10;102928.23;106734;1273;22538;-47
2023/02/28 10:01:09;;;;;;;9.80;8.10;;;;;;;9.18;54.09;102923.48;106748;1273;22684;-47
2023/02/28 10:04:08;;;;;;;9.00;7.70;;;;;;;9.14;54.38;102915.27;106652;1272;22540;-47
2023/02/28 10:06:46;;;;;;;9.40;8.20;;;;;;;9.07;54.31;102918.95;106713;1272;25425;-47
2023/02/28 10:09:17;;;;;;;8.60;7.70;;;;;;;9.01;54.54;102916.92;106573;1272;24061;-47
2023/02/28 10:11:45;;;;;;;7.90;7.10;;;;;;;9.04;54.97;102910.58;106779;1270;23880;-47
2023/02/28 10:14:16;;;;;;;8.20;7.40;;;;;;;9.13;54.42;102910.41;106739;1271;25334;-47
2023/02/28 10:16:53;;;;;;;8.20;7.20;;;;;;;9.13;54.56;102910.58;106545;1278;25341;-47
2023/02/28 10:19:26;;;;;;;9.10;8.10;;;;;;;9.14;54.38;102911.11;106463;1278;25359;-47
2023/02/28 10:22:19;;;;;;;9.40;8.30;;;;;;;9.12;54.71;102911.41;105922;1270;1003515;-47
2023/02/28 10:24:52;;;;;;;10.70;8.90;;;;;;;9.15;54.98;102918.59;106771;1270;22652;-47
2023/02/28 10:27:24;;;;;;;8.60;7.80;;;;;;;9.21;54.91;102921.44;106337;1270;22669;-49
2023/02/28 10:30:00;;;;;;;7.90;7.10;;;;;;;9.25;54.69;102932.45;106781;1270;22533;-48
2023/02/28 10:32:31;;;;;;;9.80;7.50;;;;;;;9.28;54.67;102934.23;106850;1270;23180;-48
2023/02/28 10:35:01;;;;;;;8.20;7.40;;;;;;;9.30;54.36;102927.34;105965;1272;1003696;-48
2023/02/28 10:37:31;;;;;;;8.40;7.60;;;;;;;9.35;54.35;102923.44;106766;1270;22635;-47
2023/02/28 10:39:59;;;;;;;9.40;8.50;;;;;;;9.42;54.25;102920.09;106759;1270;23177;-49
2023/02/28 10:42:29;;;;;;;8.40;7.60;;;;;;;9.46;53.81;102917.41;106780;1273;25448;-48
2023/02/28 10:45:10;;;;;;;;;;;;;;;9.49;53.63;102915.89;106782;1271;25330;-48
2023/02/28 10:48:04;;;;;;;7.50;6.70;;;;;;;9.53;53.69;102916.31;106082;1270;1003770;-48
2023/02/28 10:50:39;;;;;;;8.70;7.80;;;;;;;9.59;53.31;102916.41;105896;1276;1003031;-47
2023/02/28 10:53:27;;;;;;;8.70;7.80;;;;;;;9.63;53.15;102915.27;106865;1271;25367;-47
2023/02/28 10:56:07;;;;;;;9.30;8.40;;;;;;;9.70;53.15;102912.80;105973;1272;1003063;-48
2023/02/28 10:58:54;;;;;;;10.60;9.40;;;;;;;9.77;52.95;102909.60;106813;1271;24483;-48
2023/02/28 11:01:43;;;;;;;10.70;9.60;;;;;;;9.78;52.83;102905.98;106814;1275;22772;-47
2023/02/28 11:04:21;;;;;;;9.60;8.70;;;;;;;9.74;52.91;102900.20;106418;1270;25265;-47
2023/02/28 11:07:00;;;;;;;9.90;8.90;;;;;;;9.70;53.08;102897.55;106762;1270;22536;-48
2023/02/28 11:09:34;;;;;;;8.90;8.00;;;;;;;9.67;53.28;102891.95;106737;1270;25498;-48
2023/02/28 11:12:05;;;;;;;9.40;8.40;;;;;;;9.65;53.40;102894.86;106700;1275;22532;-48
2023/02/28 11:14:39;;;;;;;9.80;8.80;;;;;;;9.65;53.52;102891.38;106715;1271;24379;-48
2023/02/28 11:17:34;;;;;;;9.90;8.90;;;;;;;9.60;53.76;102894.60;106767;1271;24246;-48
2023/02/28 11:20:07;;;;;;;9.90;8.90;;;;;;;9.57;53.82;102890.75;106290;1282;22533;-49
2023/02/28 11:22:38;;;;;;;9.20;8.30;;;;;;;9.57;54.01;102896.28;106116;1281;24394;-49
2023/02/28 11:25:10;;;;;;;9.50;8.00;;;;;;;9.66;54.02;102898.52;106337;1269;25341;-48
2023/02/28 11:27:49;;;;;;;9.30;8.40;;;;;;;9.75;53.80;102898.83;106356;1279;22543;-48
2023/02/28 11:30:28;;;;;;;8.70;7.80;;;;;;;9.81;53.59;102899.09;106336;1278;25382;-48
2023/02/28 11:32:56;;;;;;;9.30;8.30;;;;;;;9.84;53.47;102899.83;105570;1278;1003455;-48
2023/02/28 11:35:36;;;;;;;9.00;8.10;;;;;;;9.81;53.34;102898.41;105633;1278;1003811;-48
2023/02/28 11:38:09;;;;;;;9.50;8.50;;;;;;;9.80;53.63;102897.88;106350;1278;22628;-48
2023/02/28 11:40:57;;;;;;;8.90;8.00;;;;;;;9.81;53.50;102899.62;105964;1279;25417;-48
2023/02/28 11:44:03;;;;;;;8.70;7.80;;;;;;;9.82;53.63;102895.64;106429;1277;25539;-48
2023/02/28 11:46:46;;;;;;;9.40;8.50;;;;;;;9.81;53.29;102893.03;106333;1278;25494;-48
2023/02/28 11:49:45;;;;;;;9.00;8.10;;;;;;;9.79;53.35;102889.53;106255;1281;22547;-48
2023/02/28 11:52:27;;;;;;;7.80;7.00;;;;;;;9.80;53.45;102890.94;106255;1278;24321;-48
2023/02/28 11:55:20;;;;;;;9.10;8.20;;;;;;;9.94;53.06;102889.91;106286;1278;22934;-47
2023/02/28 11:58:17;;;;;;;9.30;8.40;;;;;;;9.99;53.22;102886.70;106596;1271;24210;-48
2023/02/28 12:01:24;;;;;;;8.10;7.30;;;;;;;10.07;53.38;102889.93;106073;1272;1003133;-48
2023/02/28 12:04:32;;;;;;;7.90;7.10;;;;;;;10.10;53.12;102890.86;106704;1278;24201;-48
2023/02/28 12:07:13;;;;;;;8.20;7.40;;;;;;;10.06;52.61;102895.30;106577;1273;22544;-48
2023/02/28 12:09:48;;;;;;;9.90;7.60;;;;;;;10.02;52.73;102891.44;106637;1273;22572;-48
2023/02/28 12:12:42;;;;;;;8.40;7.50;;;;;;;10.02;52.68;102894.55;106586;1277;25375;-47
2023/02/28 12:15:30;;;;;;;8.30;7.50;;;;;;;10.02;52.68;102895.40;106684;1273;25353;-47
2023/02/28 12:18:19;;;;;;;9.50;8.50;;;;;;;9.98;52.46;102901.94;106631;1273;23375;-47
2023/02/28 12:21:03;;;;;;;8.00;7.20;;;;;;;9.97;52.76;102902.98;106555;1260;25427;-47
2023/02/28 12:24:07;;;;;;;8.00;7.20;;;;;;;10.13;52.47;102900.11;106353;1273;25360;-47
2023/02/28 12:26:42;;;;;;;8.60;7.80;;;;;;;10.24;51.44;102900.10;106154;1281;25618;-48
2023/02/28 12:29:23;;;;;;;8.90;8.00;;;;;;;10.26;51.12;102901.70;106071;1281;22567;-48
2023/02/28 12:32:32;;;;;;;8.50;7.70;;;;;;;10.27;50.93;102894.77;106091;1280;24346;-48
2023/02/28 12:35:08;;;;;;;8.80;8.00;;;;;;;10.34;51.20;102891.73;105767;1286;24394;-48
2023/02/28 12:37:48;;;;;;;8.60;7.80;;;;;;;10.44;50.88;102891.70;105828;1286;26521;-48
2023/02/28 12:40:22;;;;;;;9.40;8.40;;;;;;;10.54;50.85;102888.36;105825;1285;25633;-48
2023/02/28 12:43:03;;;;;;;9.10;8.20;;;;;;;10.62;50.53;102888.28;105732;1284;24292;-48
2023/02/28 12:45:48;;;;;;;9.80;8.80;;;;;;;10.68;50.48;102881.57;105656;1284;25369;-48
2023/02/28 12:48:24;;;;;;;10.10;9.10;;;;;;;10.73;50.04;102880.06;105070;1284;1003471;-48
2023/02/28 12:50:53;;;;;;;9.20;8.30;;;;;;;10.68;50.06;102872.20;104949;1284;1003141;-47
2023/02/28 12:53:39;;;;;;;9.20;8.20;;;;;;;10.65;49.81;102869.39;105756;1286;25853;-47
2023/02/28 12:56:13;;;;;;;8.10;7.30;;;;;;;10.58;49.93;102870.34;105660;1284;22591;-48
2023/02/28 12:58:54;;;;;;;8.40;7.60;;;;;;;10.56;49.69;102873.11;105696;1286;22554;-47
2023/02/28 13:01:31;;;;;;;8.10;7.30;;;;;;;10.58;49.72;102873.13;105636;1285;22548;-50
2023/02/28 13:04:19;;;;;;;8.60;7.70;;;;;;;10.61;49.52;102862.93;106213;1280;26119;-47